sensor_id;sensor_type;location;lat;lon;timestamp;P1;durP1;ratioP1;P2;durP2;ratioP2
41629;SDS011;27322;49.488;8.480;2023-11-21T00:02:19;3.55;;;0.80;;
41629;SDS011;27322;49.488;8.480;2023-11-21T00:04:45;4.07;;;1.00;;
41629;SDS011;27322;49.488;8.480;2023-11-21T00:07:13;7.03;;;0.82;;
41629;SDS011;27322;49.488;8.480;2023-11-21T00:09:39;5.20;;;1.10;;
41629;SDS011;27322;49.488;8.480;2023-11-21T00:12:05;3.45;;;0.90;;
41629;SDS011;27322;49.488;8.480;2023-11-21T00:14:31;3.03;;;1.10;;
41629;SDS011;27322;49.488;8.480;2023-11-21T00:16:56;3.20;;;0.80;;
41629;SDS011;27322;49.488;8.480;2023-11-21T00:19:22;4.45;;;1.00;;
41629;SDS011;27322;49.488;8.480;2023-11-21T00:21:47;4.07;;;1.00;;
41629;SDS011;27322;49.488;8.480;2023-11-21T00:24:13;3.83;;;1.00;;
41629;SDS011;27322;49.488;8.480;2023-11-21T00:26:39;5.13;;;1.00;;
41629;SDS011;27322;49.488;8.480;2023-11-21T00:29:05;3.22;;;0.85;;
41629;SDS011;27322;49.488;8.480;2023-11-21T00:31:36;2.88;;;0.80;;
41629;SDS011;27322;49.488;8.480;2023-11-21T00:34:04;3.88;;;0.93;;
41629;SDS011;27322;49.488;8.480;2023-11-21T00:36:31;2.78;;;0.70;;
41629;SDS011;27322;49.488;8.480;2023-11-21T00:38:57;3.90;;;1.08;;
41629;SDS011;27322;49.488;8.480;2023-11-21T00:41:23;3.58;;;0.80;;
41629;SDS011;27322;49.488;8.480;2023-11-21T00:43:48;5.90;;;1.00;;
41629;SDS011;27322;49.488;8.480;2023-11-21T00:46:14;3.33;;;0.90;;
41629;SDS011;27322;49.488;8.480;2023-11-21T00:48:39;3.33;;;0.98;;
41629;SDS011;27322;49.488;8.480;2023-11-21T00:51:05;3.55;;;0.90;;
41629;SDS011;27322;49.488;8.480;2023-11-21T00:53:31;4.32;;;1.10;;
41629;SDS011;27322;49.488;8.480;2023-11-21T00:55:57;3.28;;;0.90;;
41629;SDS011;27322;49.488;8.480;2023-11-21T00:58:26;5.88;;;0.90;;
41629;SDS011;27322;49.488;8.480;2023-11-21T01:00:51;3.03;;;0.80;;
41629;SDS011;27322;49.488;8.480;2023-11-21T01:03:17;3.72;;;0.90;;
41629;SDS011;27322;49.488;8.480;2023-11-21T01:05:43;3.65;;;0.90;;
41629;SDS011;27322;49.488;8.480;2023-11-21T01:08:10;4.63;;;1.00;;
41629;SDS011;27322;49.488;8.480;2023-11-21T01:10:36;3.47;;;0.90;;
41629;SDS011;27322;49.488;8.480;2023-11-21T01:13:01;3.55;;;0.90;;
41629;SDS011;27322;49.488;8.480;2023-11-21T01:15:30;3.03;;;0.95;;
41629;SDS011;27322;49.488;8.480;2023-11-21T01:17:56;3.88;;;0.90;;
41629;SDS011;27322;49.488;8.480;2023-11-21T01:20:22;5.22;;;1.00;;
41629;SDS011;27322;49.488;8.480;2023-11-21T01:22:47;3.25;;;0.98;;
41629;SDS011;27322;49.488;8.480;2023-11-21T01:25:14;5.55;;;1.10;;
41629;SDS011;27322;49.488;8.480;2023-11-21T01:27:41;3.78;;;1.13;;
41629;SDS011;27322;49.488;8.480;2023-11-21T01:30:07;4.78;;;1.00;;
41629;SDS011;27322;49.488;8.480;2023-11-21T01:32:35;4.03;;;1.10;;
41629;SDS011;27322;49.488;8.480;2023-11-21T01:35:01;2.67;;;1.00;;
41629;SDS011;27322;49.488;8.480;2023-11-21T01:37:27;4.88;;;0.88;;
41629;SDS011;27322;49.488;8.480;2023-11-21T01:39:53;4.43;;;1.02;;
41629;SDS011;27322;49.488;8.480;2023-11-21T01:42:20;2.95;;;0.95;;
41629;SDS011;27322;49.488;8.480;2023-11-21T01:44:46;2.38;;;0.82;;
41629;SDS011;27322;49.488;8.480;2023-11-21T01:47:11;4.18;;;1.00;;
41629;SDS011;27322;49.488;8.480;2023-11-21T01:49:39;2.05;;;0.85;;
41629;SDS011;27322;49.488;8.480;2023-11-21T01:52:05;3.70;;;0.90;;
41629;SDS011;27322;49.488;8.480;2023-11-21T01:54:31;2.30;;;0.80;;
41629;SDS011;27322;49.488;8.480;2023-11-21T01:56:57;3.10;;;0.73;;
41629;SDS011;27322;49.488;8.480;2023-11-21T01:59:34;4.28;;;0.95;;
41629;SDS011;27322;49.488;8.480;2023-11-21T02:02:02;3.08;;;0.93;;
41629;SDS011;27322;49.488;8.480;2023-11-21T02:04:30;3.97;;;1.00;;
41629;SDS011;27322;49.488;8.480;2023-11-21T02:06:56;3.10;;;1.00;;
41629;SDS011;27322;49.488;8.480;2023-11-21T02:09:28;2.33;;;0.85;;
41629;SDS011;27322;49.488;8.480;2023-11-21T02:11:55;2.95;;;0.88;;
41629;SDS011;27322;49.488;8.480;2023-11-21T02:14:21;3.28;;;1.02;;
41629;SDS011;27322;49.488;8.480;2023-11-21T02:16:48;3.10;;;1.00;;
41629;SDS011;27322;49.488;8.480;2023-11-21T02:19:17;2.15;;;0.85;;
41629;SDS011;27322;49.488;8.480;2023-11-21T02:21:50;2.22;;;0.80;;
41629;SDS011;27322;49.488;8.480;2023-11-21T02:24:18;4.40;;;0.75;;
41629;SDS011;27322;49.488;8.480;2023-11-21T02:26:45;3.83;;;0.90;;
41629;SDS011;27322;49.488;8.480;2023-11-21T02:29:11;2.40;;;1.10;;
41629;SDS011;27322;49.488;8.480;2023-11-21T02:31:40;3.10;;;1.00;;
41629;SDS011;27322;49.488;8.480;2023-11-21T02:34:15;7.00;;;1.00;;
41629;SDS011;27322;49.488;8.480;2023-11-21T02:36:42;2.92;;;1.00;;
41629;SDS011;27322;49.488;8.480;2023-11-21T02:39:10;3.20;;;0.90;;
41629;SDS011;27322;49.488;8.480;2023-11-21T02:41:39;3.20;;;1.00;;
41629;SDS011;27322;49.488;8.480;2023-11-21T02:44:08;2.80;;;0.93;;
41629;SDS011;27322;49.488;8.480;2023-11-21T02:46:35;2.92;;;0.80;;
41629;SDS011;27322;49.488;8.480;2023-11-21T02:49:01;3.80;;;0.80;;
41629;SDS011;27322;49.488;8.480;2023-11-21T02:51:35;3.15;;;0.88;;
41629;SDS011;27322;49.488;8.480;2023-11-21T02:54:01;2.22;;;0.68;;
41629;SDS011;27322;49.488;8.480;2023-11-21T02:56:30;4.78;;;1.10;;
41629;SDS011;27322;49.488;8.480;2023-11-21T02:58:56;6.28;;;1.35;;
41629;SDS011;27322;49.488;8.480;2023-11-21T03:01:22;2.22;;;0.90;;
41629;SDS011;27322;49.488;8.480;2023-11-21T03:03:49;2.97;;;0.90;;
41629;SDS011;27322;49.488;8.480;2023-11-21T03:06:16;2.70;;;0.90;;
41629;SDS011;27322;49.488;8.480;2023-11-21T03:08:42;5.47;;;1.00;;
41629;SDS011;27322;49.488;8.480;2023-11-21T03:11:10;3.65;;;0.77;;
41629;SDS011;27322;49.488;8.480;2023-11-21T03:13:36;1.92;;;0.68;;
41629;SDS011;27322;49.488;8.480;2023-11-21T03:16:02;3.35;;;1.00;;
41629;SDS011;27322;49.488;8.480;2023-11-21T03:18:27;2.13;;;0.80;;
41629;SDS011;27322;49.488;8.480;2023-11-21T03:20:54;5.32;;;0.88;;
41629;SDS011;27322;49.488;8.480;2023-11-21T03:23:20;4.28;;;1.10;;
41629;SDS011;27322;49.488;8.480;2023-11-21T03:25:45;3.63;;;0.82;;
41629;SDS011;27322;49.488;8.480;2023-11-21T03:28:11;2.42;;;0.82;;
41629;SDS011;27322;49.488;8.480;2023-11-21T03:30:36;3.00;;;0.80;;
41629;SDS011;27322;49.488;8.480;2023-11-21T03:33:02;3.05;;;0.90;;
41629;SDS011;27322;49.488;8.480;2023-11-21T03:35:27;2.42;;;0.88;;
41629;SDS011;27322;49.488;8.480;2023-11-21T03:37:53;5.22;;;0.98;;
41629;SDS011;27322;49.488;8.480;2023-11-21T03:40:19;3.63;;;0.80;;
41629;SDS011;27322;49.488;8.480;2023-11-21T03:42:46;4.68;;;1.02;;
41629;SDS011;27322;49.488;8.480;2023-11-21T03:45:12;2.13;;;0.80;;
41629;SDS011;27322;49.488;8.480;2023-11-21T03:47:37;2.70;;;0.90;;
41629;SDS011;27322;49.488;8.480;2023-11-21T03:50:04;3.13;;;0.90;;
41629;SDS011;27322;49.488;8.480;2023-11-21T03:52:30;2.38;;;0.80;;
41629;SDS011;27322;49.488;8.480;2023-11-21T03:54:56;2.13;;;0.90;;
41629;SDS011;27322;49.488;8.480;2023-11-21T03:57:21;2.45;;;0.80;;
41629;SDS011;27322;49.488;8.480;2023-11-21T03:59:47;3.05;;;0.75;;
41629;SDS011;27322;49.488;8.480;2023-11-21T04:02:12;2.72;;;0.88;;
41629;SDS011;27322;49.488;8.480;2023-11-21T04:04:38;2.28;;;0.68;;
41629;SDS011;27322;49.488;8.480;2023-11-21T04:07:04;3.47;;;0.80;;
41629;SDS011;27322;49.488;8.480;2023-11-21T04:09:30;3.17;;;0.90;;
41629;SDS011;27322;49.488;8.480;2023-11-21T04:11:56;2.28;;;0.60;;
41629;SDS011;27322;49.488;8.480;2023-11-21T04:14:22;4.82;;;1.17;;
41629;SDS011;27322;49.488;8.480;2023-11-21T04:16:47;3.63;;;1.00;;
41629;SDS011;27322;49.488;8.480;2023-11-21T04:19:13;2.85;;;1.02;;
41629;SDS011;27322;49.488;8.480;2023-11-21T04:21:40;4.05;;;1.20;;
41629;SDS011;27322;49.488;8.480;2023-11-21T04:24:06;3.08;;;1.10;;
41629;SDS011;27322;49.488;8.480;2023-11-21T04:26:32;3.15;;;1.35;;
41629;SDS011;27322;49.488;8.480;2023-11-21T04:29:03;2.65;;;1.00;;
41629;SDS011;27322;49.488;8.480;2023-11-21T04:31:29;2.63;;;1.10;;
41629;SDS011;27322;49.488;8.480;2023-11-21T04:33:55;3.70;;;1.48;;
41629;SDS011;27322;49.488;8.480;2023-11-21T04:36:21;1.45;;;0.70;;
41629;SDS011;27322;49.488;8.480;2023-11-21T04:38:46;2.20;;;0.88;;
41629;SDS011;27322;49.488;8.480;2023-11-21T04:41:12;2.92;;;1.10;;
41629;SDS011;27322;49.488;8.480;2023-11-21T04:43:37;3.13;;;1.20;;
41629;SDS011;27322;49.488;8.480;2023-11-21T04:46:03;4.65;;;1.02;;
41629;SDS011;27322;49.488;8.480;2023-11-21T04:48:29;4.85;;;1.45;;
41629;SDS011;27322;49.488;8.480;2023-11-21T04:50:54;3.30;;;1.48;;
41629;SDS011;27322;49.488;8.480;2023-11-21T04:53:20;5.80;;;2.13;;
41629;SDS011;27322;49.488;8.480;2023-11-21T04:55:45;6.30;;;3.38;;
41629;SDS011;27322;49.488;8.480;2023-11-21T04:58:11;4.95;;;3.00;;
41629;SDS011;27322;49.488;8.480;2023-11-21T05:00:37;6.07;;;3.10;;
41629;SDS011;27322;49.488;8.480;2023-11-21T05:03:03;5.93;;;3.10;;
41629;SDS011;27322;49.488;8.480;2023-11-21T05:05:30;4.13;;;2.28;;
41629;SDS011;27322;49.488;8.480;2023-11-21T05:07:55;5.72;;;2.97;;
41629;SDS011;27322;49.488;8.480;2023-11-21T05:10:21;6.15;;;3.42;;
41629;SDS011;27322;49.488;8.480;2023-11-21T05:12:47;6.93;;;4.22;;
41629;SDS011;27322;49.488;8.480;2023-11-21T05:15:15;6.55;;;3.58;;
41629;SDS011;27322;49.488;8.480;2023-11-21T05:17:42;6.68;;;3.42;;
41629;SDS011;27322;49.488;8.480;2023-11-21T05:20:09;6.57;;;3.63;;
41629;SDS011;27322;49.488;8.480;2023-11-21T05:22:37;7.15;;;3.85;;
41629;SDS011;27322;49.488;8.480;2023-11-21T05:25:03;8.35;;;4.32;;
41629;SDS011;27322;49.488;8.480;2023-11-21T05:27:29;7.03;;;3.72;;
41629;SDS011;27322;49.488;8.480;2023-11-21T05:29:58;5.93;;;3.75;;
41629;SDS011;27322;49.488;8.480;2023-11-21T05:32:24;5.43;;;3.38;;
41629;SDS011;27322;49.488;8.480;2023-11-21T05:34:50;6.60;;;3.10;;
41629;SDS011;27322;49.488;8.480;2023-11-21T05:37:16;5.88;;;3.40;;
41629;SDS011;27322;49.488;8.480;2023-11-21T05:39:42;6.97;;;3.00;;
41629;SDS011;27322;49.488;8.480;2023-11-21T05:42:08;5.55;;;3.20;;
41629;SDS011;27322;49.488;8.480;2023-11-21T05:44:35;5.70;;;3.75;;
41629;SDS011;27322;49.488;8.480;2023-11-21T05:47:02;7.10;;;3.15;;
41629;SDS011;27322;49.488;8.480;2023-11-21T05:49:28;6.32;;;3.08;;
41629;SDS011;27322;49.488;8.480;2023-11-21T05:51:57;5.75;;;3.08;;
41629;SDS011;27322;49.488;8.480;2023-11-21T05:54:22;6.97;;;3.20;;
41629;SDS011;27322;49.488;8.480;2023-11-21T05:56:48;7.00;;;2.72;;
41629;SDS011;27322;49.488;8.480;2023-11-21T05:59:14;5.82;;;3.08;;
41629;SDS011;27322;49.488;8.480;2023-11-21T06:01:40;6.47;;;2.72;;
41629;SDS011;27322;49.488;8.480;2023-11-21T06:04:05;6.65;;;2.50;;
41629;SDS011;27322;49.488;8.480;2023-11-21T06:06:33;8.18;;;2.78;;
41629;SDS011;27322;49.488;8.480;2023-11-21T06:08:59;4.80;;;2.45;;
41629;SDS011;27322;49.488;8.480;2023-11-21T06:11:25;5.28;;;2.88;;
41629;SDS011;27322;49.488;8.480;2023-11-21T06:13:50;5.68;;;2.67;;
41629;SDS011;27322;49.488;8.480;2023-11-21T06:16:18;5.30;;;2.60;;
41629;SDS011;27322;49.488;8.480;2023-11-21T06:18:45;6.78;;;3.35;;
41629;SDS011;27322;49.488;8.480;2023-11-21T06:21:10;6.13;;;3.25;;
41629;SDS011;27322;49.488;8.480;2023-11-21T06:23:36;8.05;;;4.10;;
41629;SDS011;27322;49.488;8.480;2023-11-21T06:26:02;6.43;;;3.67;;
41629;SDS011;27322;49.488;8.480;2023-11-21T06:28:29;7.57;;;4.32;;
41629;SDS011;27322;49.488;8.480;2023-11-21T06:30:55;11.25;;;4.90;;
41629;SDS011;27322;49.488;8.480;2023-11-21T06:33:22;10.90;;;5.35;;
41629;SDS011;27322;49.488;8.480;2023-11-21T06:35:47;10.20;;;4.68;;
41629;SDS011;27322;49.488;8.480;2023-11-21T06:38:13;9.68;;;4.35;;
41629;SDS011;27322;49.488;8.480;2023-11-21T06:40:38;8.88;;;4.90;;
41629;SDS011;27322;49.488;8.480;2023-11-21T06:43:05;9.18;;;4.40;;
41629;SDS011;27322;49.488;8.480;2023-11-21T06:45:32;8.23;;;4.70;;
41629;SDS011;27322;49.488;8.480;2023-11-21T06:47:59;8.45;;;4.95;;
41629;SDS011;27322;49.488;8.480;2023-11-21T06:50:24;9.40;;;5.22;;
41629;SDS011;27322;49.488;8.480;2023-11-21T06:52:50;7.93;;;4.65;;
41629;SDS011;27322;49.488;8.480;2023-11-21T06:55:16;9.77;;;5.50;;
41629;SDS011;27322;49.488;8.480;2023-11-21T06:57:41;9.23;;;4.97;;
41629;SDS011;27322;49.488;8.480;2023-11-21T07:00:08;9.07;;;4.85;;
41629;SDS011;27322;49.488;8.480;2023-11-21T07:02:34;10.23;;;5.20;;
41629;SDS011;27322;49.488;8.480;2023-11-21T07:04:59;11.00;;;5.68;;
41629;SDS011;27322;49.488;8.480;2023-11-21T07:07:28;8.98;;;5.32;;
41629;SDS011;27322;49.488;8.480;2023-11-21T07:09:54;8.27;;;5.13;;
41629;SDS011;27322;49.488;8.480;2023-11-21T07:12:19;10.70;;;5.68;;
41629;SDS011;27322;49.488;8.480;2023-11-21T07:14:46;13.02;;;5.75;;
41629;SDS011;27322;49.488;8.480;2023-11-21T07:17:11;10.48;;;5.18;;
41629;SDS011;27322;49.488;8.480;2023-11-21T07:19:37;8.38;;;5.25;;
41629;SDS011;27322;49.488;8.480;2023-11-21T07:22:03;9.52;;;5.45;;
41629;SDS011;27322;49.488;8.480;2023-11-21T07:24:30;8.35;;;4.35;;
41629;SDS011;27322;49.488;8.480;2023-11-21T07:26:57;9.88;;;5.32;;
41629;SDS011;27322;49.488;8.480;2023-11-21T07:29:23;8.38;;;4.43;;
41629;SDS011;27322;49.488;8.480;2023-11-21T07:31:51;8.57;;;3.92;;
41629;SDS011;27322;49.488;8.480;2023-11-21T07:34:18;8.50;;;4.20;;
41629;SDS011;27322;49.488;8.480;2023-11-21T07:36:45;8.38;;;4.30;;
41629;SDS011;27322;49.488;8.480;2023-11-21T07:39:10;8.25;;;4.20;;
41629;SDS011;27322;49.488;8.480;2023-11-21T07:41:36;8.55;;;4.25;;
41629;SDS011;27322;49.488;8.480;2023-11-21T07:44:03;8.00;;;4.38;;
41629;SDS011;27322;49.488;8.480;2023-11-21T07:46:28;8.65;;;4.00;;
41629;SDS011;27322;49.488;8.480;2023-11-21T07:48:54;8.52;;;4.45;;
41629;SDS011;27322;49.488;8.480;2023-11-21T07:51:20;8.73;;;4.82;;
41629;SDS011;27322;49.488;8.480;2023-11-21T07:53:45;9.07;;;4.57;;
41629;SDS011;27322;49.488;8.480;2023-11-21T07:56:11;9.48;;;4.45;;
41629;SDS011;27322;49.488;8.480;2023-11-21T07:58:37;9.73;;;4.00;;
41629;SDS011;27322;49.488;8.480;2023-11-21T08:01:03;8.27;;;4.40;;
41629;SDS011;27322;49.488;8.480;2023-11-21T08:03:30;9.88;;;4.18;;
41629;SDS011;27322;49.488;8.480;2023-11-21T08:05:59;7.10;;;3.65;;
41629;SDS011;27322;49.488;8.480;2023-11-21T08:08:25;9.02;;;3.83;;
41629;SDS011;27322;49.488;8.480;2023-11-21T08:10:51;5.88;;;2.97;;
41629;SDS011;27322;49.488;8.480;2023-11-21T08:13:24;5.40;;;3.08;;
41629;SDS011;27322;49.488;8.480;2023-11-21T08:15:50;4.75;;;2.47;;
41629;SDS011;27322;49.488;8.480;2023-11-21T08:18:19;4.95;;;2.47;;
41629;SDS011;27322;49.488;8.480;2023-11-21T08:20:44;5.13;;;2.63;;
41629;SDS011;27322;49.488;8.480;2023-11-21T08:23:12;5.35;;;2.70;;
41629;SDS011;27322;49.488;8.480;2023-11-21T08:25:42;4.25;;;2.25;;
41629;SDS011;27322;49.488;8.480;2023-11-21T08:28:12;4.68;;;2.33;;
41629;SDS011;27322;49.488;8.480;2023-11-21T08:30:39;6.25;;;1.90;;
41629;SDS011;27322;49.488;8.480;2023-11-21T08:33:06;2.95;;;1.42;;
41629;SDS011;27322;49.488;8.480;2023-11-21T08:35:33;5.07;;;1.50;;
41629;SDS011;27322;49.488;8.480;2023-11-21T08:37:59;3.63;;;1.58;;
41629;SDS011;27322;49.488;8.480;2023-11-21T08:40:25;4.15;;;1.73;;
41629;SDS011;27322;49.488;8.480;2023-11-21T08:42:50;3.65;;;1.75;;
41629;SDS011;27322;49.488;8.480;2023-11-21T08:45:19;3.20;;;1.60;;
41629;SDS011;27322;49.488;8.480;2023-11-21T08:47:46;2.75;;;1.27;;
41629;SDS011;27322;49.488;8.480;2023-11-21T08:50:11;2.45;;;1.10;;
41629;SDS011;27322;49.488;8.480;2023-11-21T08:52:38;1.80;;;0.90;;
41629;SDS011;27322;49.488;8.480;2023-11-21T08:55:05;3.20;;;1.40;;
41629;SDS011;27322;49.488;8.480;2023-11-21T08:57:37;2.25;;;0.95;;
41629;SDS011;27322;49.488;8.480;2023-11-21T09:00:03;3.15;;;1.27;;
41629;SDS011;27322;49.488;8.480;2023-11-21T09:02:32;1.77;;;0.85;;
41629;SDS011;27322;49.488;8.480;2023-11-21T09:05:02;1.83;;;0.80;;
41629;SDS011;27322;49.488;8.480;2023-11-21T09:07:29;2.45;;;0.90;;
41629;SDS011;27322;49.488;8.480;2023-11-21T09:09:55;2.47;;;0.80;;
41629;SDS011;27322;49.488;8.480;2023-11-21T09:12:21;1.63;;;0.70;;
41629;SDS011;27322;49.488;8.480;2023-11-21T09:14:47;2.10;;;0.90;;
41629;SDS011;27322;49.488;8.480;2023-11-21T09:17:12;2.75;;;1.13;;
41629;SDS011;27322;49.488;8.480;2023-11-21T09:19:39;2.40;;;1.20;;
41629;SDS011;27322;49.488;8.480;2023-11-21T09:22:05;3.15;;;1.50;;
41629;SDS011;27322;49.488;8.480;2023-11-21T09:24:32;3.25;;;1.60;;
41629;SDS011;27322;49.488;8.480;2023-11-21T09:26:58;3.90;;;1.90;;
41629;SDS011;27322;49.488;8.480;2023-11-21T09:29:24;4.40;;;2.30;;
41629;SDS011;27322;49.488;8.480;2023-11-21T09:31:51;4.57;;;2.38;;
41629;SDS011;27322;49.488;8.480;2023-11-21T09:34:16;5.30;;;2.33;;
41629;SDS011;27322;49.488;8.480;2023-11-21T09:36:45;5.05;;;2.42;;
41629;SDS011;27322;49.488;8.480;2023-11-21T09:39:11;5.72;;;2.70;;
41629;SDS011;27322;49.488;8.480;2023-11-21T09:41:52;5.43;;;2.75;;
41629;SDS011;27322;49.488;8.480;2023-11-21T09:44:28;7.70;;;4.03;;
41629;SDS011;27322;49.488;8.480;2023-11-21T09:47:00;7.70;;;3.58;;
41629;SDS011;27322;49.488;8.480;2023-11-21T09:49:27;7.25;;;3.67;;
41629;SDS011;27322;49.488;8.480;2023-11-21T09:51:57;7.97;;;3.78;;
41629;SDS011;27322;49.488;8.480;2023-11-21T09:54:28;6.07;;;3.72;;
41629;SDS011;27322;49.488;8.480;2023-11-21T09:56:56;7.18;;;4.00;;
41629;SDS011;27322;49.488;8.480;2023-11-21T09:59:23;7.28;;;3.97;;
41629;SDS011;27322;49.488;8.480;2023-11-21T10:01:49;8.95;;;4.60;;
41629;SDS011;27322;49.488;8.480;2023-11-21T10:04:15;10.07;;;5.20;;
41629;SDS011;27322;49.488;8.480;2023-11-21T10:06:42;9.32;;;4.65;;
41629;SDS011;27322;49.488;8.480;2023-11-21T10:09:11;10.15;;;5.38;;
41629;SDS011;27322;49.488;8.480;2023-11-21T10:11:42;9.93;;;5.22;;
41629;SDS011;27322;49.488;8.480;2023-11-21T10:14:11;10.57;;;5.15;;
41629;SDS011;27322;49.488;8.480;2023-11-21T10:16:38;12.05;;;5.53;;
41629;SDS011;27322;49.488;8.480;2023-11-21T10:19:06;11.40;;;6.03;;
41629;SDS011;27322;49.488;8.480;2023-11-21T10:21:35;11.45;;;5.85;;
41629;SDS011;27322;49.488;8.480;2023-11-21T10:24:03;13.20;;;6.57;;
41629;SDS011;27322;49.488;8.480;2023-11-21T10:26:28;12.35;;;6.70;;
41629;SDS011;27322;49.488;8.480;2023-11-21T10:28:57;12.20;;;6.93;;
41629;SDS011;27322;49.488;8.480;2023-11-21T10:31:24;14.80;;;6.78;;
41629;SDS011;27322;49.488;8.480;2023-11-21T10:33:52;12.13;;;6.35;;
41629;SDS011;27322;49.488;8.480;2023-11-21T10:36:25;13.70;;;6.35;;
41629;SDS011;27322;49.488;8.480;2023-11-21T10:38:52;13.13;;;6.25;;
41629;SDS011;27322;49.488;8.480;2023-11-21T10:41:18;11.05;;;5.30;;
41629;SDS011;27322;49.488;8.480;2023-11-21T10:43:44;13.13;;;6.32;;
41629;SDS011;27322;49.488;8.480;2023-11-21T10:46:09;14.77;;;6.07;;
41629;SDS011;27322;49.488;8.480;2023-11-21T10:48:35;10.95;;;5.35;;
41629;SDS011;27322;49.488;8.480;2023-11-21T10:51:06;10.00;;;4.95;;
41629;SDS011;27322;49.488;8.480;2023-11-21T10:53:40;7.88;;;4.40;;
41629;SDS011;27322;49.488;8.480;2023-11-21T10:56:10;10.23;;;4.90;;
41629;SDS011;27322;49.488;8.480;2023-11-21T10:58:42;9.15;;;4.70;;
41629;SDS011;27322;49.488;8.480;2023-11-21T11:01:08;8.85;;;4.50;;
41629;SDS011;27322;49.488;8.480;2023-11-21T11:03:36;10.10;;;4.60;;
41629;SDS011;27322;49.488;8.480;2023-11-21T11:06:04;9.07;;;4.07;;
41629;SDS011;27322;49.488;8.480;2023-11-21T11:08:32;8.77;;;4.10;;
41629;SDS011;27322;49.488;8.480;2023-11-21T11:11:00;8.95;;;4.00;;
41629;SDS011;27322;49.488;8.480;2023-11-21T11:13:25;8.32;;;4.25;;
41629;SDS011;27322;49.488;8.480;2023-11-21T11:15:51;9.65;;;4.28;;
41629;SDS011;27322;49.488;8.480;2023-11-21T11:18:32;7.35;;;3.95;;
41629;SDS011;27322;49.488;8.480;2023-11-21T11:21:07;7.93;;;4.18;;
41629;SDS011;27322;49.488;8.480;2023-11-21T11:26:31;8.10;;;3.67;;
41629;SDS011;27322;49.488;8.480;2023-11-21T11:31:50;9.68;;;4.30;;
41629;SDS011;27322;49.488;8.480;2023-11-21T11:34:35;7.60;;;3.60;;
41629;SDS011;27322;49.488;8.480;2023-11-21T11:37:06;7.85;;;3.80;;
41629;SDS011;27322;49.488;8.480;2023-11-21T11:39:36;8.02;;;3.63;;
41629;SDS011;27322;49.488;8.480;2023-11-21T11:42:14;8.70;;;3.97;;
41629;SDS011;27322;49.488;8.480;2023-11-21T11:49:56;6.85;;;3.67;;
41629;SDS011;27322;49.488;8.480;2023-11-21T11:52:38;10.68;;;4.55;;
41629;SDS011;27322;49.488;8.480;2023-11-21T11:55:11;7.32;;;3.78;;
41629;SDS011;27322;49.488;8.480;2023-11-21T11:57:44;8.45;;;4.20;;
41629;SDS011;27322;49.488;8.480;2023-11-21T12:00:13;8.07;;;4.20;;
41629;SDS011;27322;49.488;8.480;2023-11-21T12:02:45;12.33;;;4.20;;
41629;SDS011;27322;49.488;8.480;2023-11-21T12:05:15;8.52;;;4.32;;
41629;SDS011;27322;49.488;8.480;2023-11-21T12:07:46;7.55;;;3.70;;
41629;SDS011;27322;49.488;8.480;2023-11-21T12:10:16;6.97;;;3.80;;
41629;SDS011;27322;49.488;8.480;2023-11-21T12:12:43;7.50;;;3.60;;
41629;SDS011;27322;49.488;8.480;2023-11-21T12:17:44;5.78;;;3.47;;
41629;SDS011;27322;49.488;8.480;2023-11-21T12:20:13;8.35;;;3.67;;
41629;SDS011;27322;49.488;8.480;2023-11-21T12:22:52;7.40;;;3.65;;
41629;SDS011;27322;49.488;8.480;2023-11-21T12:25:19;6.65;;;3.20;;
41629;SDS011;27322;49.488;8.480;2023-11-21T12:27:47;6.80;;;3.53;;
41629;SDS011;27322;49.488;8.480;2023-11-21T12:30:17;8.88;;;3.75;;
41629;SDS011;27322;49.488;8.480;2023-11-21T12:32:45;5.90;;;3.10;;
41629;SDS011;27322;49.488;8.480;2023-11-21T12:35:14;5.97;;;2.95;;
41629;SDS011;27322;49.488;8.480;2023-11-21T12:37:41;5.00;;;2.70;;
41629;SDS011;27322;49.488;8.480;2023-11-21T12:40:10;5.47;;;2.72;;
41629;SDS011;27322;49.488;8.480;2023-11-21T12:42:39;4.75;;;2.38;;
41629;SDS011;27322;49.488;8.480;2023-11-21T12:45:18;8.07;;;2.72;;
41629;SDS011;27322;49.488;8.480;2023-11-21T12:50:11;5.22;;;2.25;;
41629;SDS011;27322;49.488;8.480;2023-11-21T12:52:49;5.97;;;2.50;;
41629;SDS011;27322;49.488;8.480;2023-11-21T12:55:21;5.68;;;2.40;;
41629;SDS011;27322;49.488;8.480;2023-11-21T12:57:48;5.10;;;2.40;;
41629;SDS011;27322;49.488;8.480;2023-11-21T13:00:17;6.22;;;2.20;;
41629;SDS011;27322;49.488;8.480;2023-11-21T13:02:53;3.83;;;1.83;;
41629;SDS011;27322;49.488;8.480;2023-11-21T13:05:24;5.75;;;2.42;;
41629;SDS011;27322;49.488;8.480;2023-11-21T13:07:54;6.45;;;2.50;;
41629;SDS011;27322;49.488;8.480;2023-11-21T13:10:27;5.03;;;2.22;;
41629;SDS011;27322;49.488;8.480;2023-11-21T13:13:02;4.82;;;1.98;;
41629;SDS011;27322;49.488;8.480;2023-11-21T13:15:30;5.90;;;2.10;;
41629;SDS011;27322;49.488;8.480;2023-11-21T13:17:58;4.53;;;2.20;;
41629;SDS011;27322;49.488;8.480;2023-11-21T13:20:24;6.35;;;2.70;;
41629;SDS011;27322;49.488;8.480;2023-11-21T13:22:54;5.13;;;1.80;;
41629;SDS011;27322;49.488;8.480;2023-11-21T13:25:24;4.10;;;1.67;;
41629;SDS011;27322;49.488;8.480;2023-11-21T13:27:56;5.40;;;2.47;;
41629;SDS011;27322;49.488;8.480;2023-11-21T13:30:23;5.22;;;1.98;;
41629;SDS011;27322;49.488;8.480;2023-11-21T13:32:56;6.70;;;1.90;;
41629;SDS011;27322;49.488;8.480;2023-11-21T13:35:22;6.78;;;2.30;;
41629;SDS011;27322;49.488;8.480;2023-11-21T13:38:03;4.95;;;2.33;;
41629;SDS011;27322;49.488;8.480;2023-11-21T13:40:31;7.00;;;2.60;;
41629;SDS011;27322;49.488;8.480;2023-11-21T13:42:59;5.40;;;2.42;;
41629;SDS011;27322;49.488;8.480;2023-11-21T13:45:29;9.00;;;2.05;;
41629;SDS011;27322;49.488;8.480;2023-11-21T13:47:55;5.88;;;1.92;;
41629;SDS011;27322;49.488;8.480;2023-11-21T13:50:24;5.35;;;2.00;;
41629;SDS011;27322;49.488;8.480;2023-11-21T13:52:57;7.13;;;2.40;;
41629;SDS011;27322;49.488;8.480;2023-11-21T13:55:29;5.78;;;1.92;;
41629;SDS011;27322;49.488;8.480;2023-11-21T13:57:54;6.60;;;1.83;;
41629;SDS011;27322;49.488;8.480;2023-11-21T14:00:20;6.80;;;2.05;;
41629;SDS011;27322;49.488;8.480;2023-11-21T14:03:04;4.45;;;1.80;;
41629;SDS011;27322;49.488;8.480;2023-11-21T14:05:35;6.63;;;1.85;;
41629;SDS011;27322;49.488;8.480;2023-11-21T14:08:01;4.43;;;1.80;;
41629;SDS011;27322;49.488;8.480;2023-11-21T14:10:30;5.60;;;1.80;;
41629;SDS011;27322;49.488;8.480;2023-11-21T14:13:08;6.75;;;2.00;;
41629;SDS011;27322;49.488;8.480;2023-11-21T14:15:35;7.32;;;2.80;;
41629;SDS011;27322;49.488;8.480;2023-11-21T14:18:06;7.47;;;2.65;;
41629;SDS011;27322;49.488;8.480;2023-11-21T14:20:35;7.13;;;2.63;;
41629;SDS011;27322;49.488;8.480;2023-11-21T14:23:04;6.65;;;2.75;;
41629;SDS011;27322;49.488;8.480;2023-11-21T14:25:32;6.57;;;2.97;;
41629;SDS011;27322;49.488;8.480;2023-11-21T14:27:59;7.00;;;3.63;;
41629;SDS011;27322;49.488;8.480;2023-11-21T14:30:25;9.05;;;3.63;;
41629;SDS011;27322;49.488;8.480;2023-11-21T14:32:52;8.48;;;3.70;;
41629;SDS011;27322;49.488;8.480;2023-11-21T14:35:18;9.73;;;3.88;;
41629;SDS011;27322;49.488;8.480;2023-11-21T14:37:44;7.28;;;3.42;;
41629;SDS011;27322;49.488;8.480;2023-11-21T14:40:11;10.27;;;3.97;;
41629;SDS011;27322;49.488;8.480;2023-11-21T14:42:37;8.23;;;3.50;;
41629;SDS011;27322;49.488;8.480;2023-11-21T14:45:04;8.25;;;3.13;;
41629;SDS011;27322;49.488;8.480;2023-11-21T14:47:32;7.57;;;3.17;;
41629;SDS011;27322;49.488;8.480;2023-11-21T14:49:59;9.60;;;3.13;;
41629;SDS011;27322;49.488;8.480;2023-11-21T14:52:47;6.43;;;3.10;;
41629;SDS011;27322;49.488;8.480;2023-11-21T14:55:23;5.65;;;2.65;;
41629;SDS011;27322;49.488;8.480;2023-11-21T14:57:50;7.30;;;2.80;;
41629;SDS011;27322;49.488;8.480;2023-11-21T15:00:19;7.05;;;2.70;;
41629;SDS011;27322;49.488;8.480;2023-11-21T15:03:00;5.07;;;2.47;;
41629;SDS011;27322;49.488;8.480;2023-11-21T15:05:29;8.68;;;3.35;;